Time;durP1;ratioP1;P1;durP2;ratioP2;P2;SDS_P1;SDS_P2;PMS_P1;PMS_P2;Temp;Humidity;BMP_temperature;BMP_pressure;BME280_temperature;BME280_humidity;BME280_pressure;Samples;Min_cycle;Max_cycle;Signal;HPM_P1;HPM_P2
2022/12/03 00:02:03;;;;;;;61.38;22.58;;;-0.10;99.90;;;;;;5052142;28;20029;-86
2022/12/03 00:04:29;;;;;;;64.50;24.33;;;-0.10;99.90;;;;;;5071709;28;20051;-86
2022/12/03 00:06:54;;;;;;;64.80;24.30;;;-0.10;99.90;;;;;;5071061;28;20107;-86
2022/12/03 00:09:20;;;;;;;63.67;22.38;;;-0.10;99.90;;;;;;5055209;28;20391;-86
2022/12/03 00:11:46;;;;;;;65.03;23.95;;;-0.10;99.90;;;;;;5055394;28;20128;-86
2022/12/03 00:14:11;;;;;;;62.33;23.45;;;-0.10;99.90;;;;;;5072070;28;20024;-86
2022/12/03 00:16:37;;;;;;;70.05;25.40;;;-0.10;99.90;;;;;;5071870;28;20035;-86
2022/12/03 00:19:03;;;;;;;67.75;23.55;;;-0.10;99.90;;;;;;5069669;28;20032;-86
2022/12/03 00:21:29;;;;;;;62.95;23.13;;;-0.10;99.90;;;;;;5067859;28;20024;-85
2022/12/03 00:23:54;;;;;;;67.88;24.70;;;-0.10;99.90;;;;;;5084804;28;20104;-86
2022/12/03 00:26:20;;;;;;;64.13;24.15;;;-0.10;99.90;;;;;;5066238;28;20024;-86
2022/12/03 00:28:47;;;;;;;64.38;23.42;;;-0.10;99.90;;;;;;5055910;28;20036;-86
2022/12/03 00:31:12;;;;;;;69.55;25.13;;;-0.10;99.90;;;;;;5079375;28;20025;-85
2022/12/03 00:33:38;;;;;;;68.32;25.10;;;-0.10;99.90;;;;;;5070084;28;20503;-85
2022/12/03 00:36:04;;;;;;;63.47;24.13;;;-0.10;99.90;;;;;;5081831;28;20115;-86
2022/12/03 00:38:30;;;;;;;68.60;24.45;;;-0.10;99.90;;;;;;5063790;28;20024;-86
2022/12/03 00:40:55;;;;;;;72.90;25.92;;;-0.10;99.90;;;;;;5070635;28;20131;-85
2022/12/03 00:43:21;;;;;;;77.50;27.23;;;-0.10;99.90;;;;;;5059955;28;20115;-85
2022/12/03 00:45:47;;;;;;;76.30;27.23;;;-0.10;99.90;;;;;;5068032;28;20033;-86
2022/12/03 00:48:12;;;;;;;72.65;25.73;;;-0.10;99.90;;;;;;5074171;28;20031;-85
2022/12/03 00:50:38;;;;;;;69.30;24.38;;;-0.10;99.90;;;;;;5070816;28;20021;-85
2022/12/03 00:53:04;;;;;;;72.55;24.90;;;0.00;99.90;;;;;;5072019;28;20075;-86
2022/12/03 00:55:29;;;;;;;65.75;24.90;;;0.00;99.90;;;;;;5051190;28;20029;-85
2022/12/03 00:57:55;;;;;;;72.03;26.33;;;-0.10;99.90;;;;;;5069252;28;20028;-85
2022/12/03 01:00:23;;;;;;;79.72;27.65;;;-0.10;99.90;;;;;;5062142;28;20449;-86
2022/12/03 01:02:50;;;;;;;77.18;28.42;;;0.00;99.90;;;;;;5067922;28;20380;-86
2022/12/03 01:05:17;;;;;;;86.75;30.15;;;0.00;99.90;;;;;;5074107;28;20024;-86
2022/12/03 01:07:43;;;;;;;85.57;29.88;;;0.00;99.90;;;;;;5070747;28;20059;-86
2022/12/03 01:10:10;;;;;;;91.88;28.48;;;0.00;99.90;;;;;;5084676;28;20496;-85
2022/12/03 01:12:35;;;;;;;98.10;28.48;;;-0.10;99.90;;;;;;5057752;28;20033;-85
2022/12/03 01:15:01;;;;;;;88.10;28.52;;;-0.10;99.90;;;;;;5071419;28;20380;-85
2022/12/03 01:17:27;;;;;;;82.45;28.60;;;-0.10;99.90;;;;;;5070388;28;20024;-85
2022/12/03 01:19:52;;;;;;;88.43;28.02;;;-0.10;99.90;;;;;;5055167;28;20032;-86
2022/12/03 01:22:18;;;;;;;87.88;29.60;;;-0.10;99.90;;;;;;5082728;28;20033;-85
2022/12/03 01:24:44;;;;;;;76.30;25.65;;;-0.10;99.90;;;;;;5061438;28;20415;-85
2022/12/03 01:27:09;;;;;;;80.93;29.60;;;-0.10;99.90;;;;;;5085641;28;20032;-85
2022/12/03 01:29:35;;;;;;;82.93;26.80;;;-0.10;99.90;;;;;;5054463;28;20035;-85
2022/12/03 01:32:16;;;;;;;90.97;31.67;;;-0.10;99.90;;;;;;5087465;28;20681;-85
2022/12/03 01:34:46;;;;;;;84.80;31.00;;;-0.10;99.90;;;;;;5058981;28;20190;-85
2022/12/03 01:37:13;;;;;;;96.07;30.17;;;-0.10;99.90;;;;;;5050763;28;20115;-86
2022/12/03 01:39:39;;;;;;;91.97;30.40;;;0.00;99.90;;;;;;5070514;28;20420;-86
2022/12/03 01:42:07;;;;;;;85.85;28.90;;;-0.10;99.90;;;;;;5070744;28;20028;-85
2022/12/03 01:44:35;;;;;;;89.38;30.23;;;-0.10;99.90;;;;;;5069061;28;20451;-85
2022/12/03 01:47:05;;;;;;;81.68;28.23;;;-0.10;99.90;;;;;;5062600;28;20028;-86
2022/12/03 01:49:40;;;;;;;87.28;29.45;;;-0.10;99.90;;;;;;5071779;28;20036;-85
2022/12/03 01:52:20;;;;;;;82.65;29.17;;;-0.10;99.90;;;;;;5067317;28;20060;-86
2022/12/03 01:54:49;;;;;;;82.82;29.00;;;0.00;99.90;;;;;;5074589;28;20029;-85
2022/12/03 01:57:28;;;;;;;89.97;30.38;;;-0.10;99.90;;;;;;5069754;28;20050;-86
2022/12/03 01:59:56;;;;;;;83.50;28.67;;;-0.10;99.90;;;;;;5064242;28;20029;-85
2022/12/03 02:02:30;;;;;;;83.80;29.25;;;-0.10;99.90;;;;;;5070315;28;20108;-86
2022/12/03 02:04:57;;;;;;;82.07;29.98;;;-0.10;99.90;;;;;;5066690;28;20028;-85
2022/12/03 02:07:30;;;;;;;78.82;28.85;;;-0.10;99.90;;;;;;5053806;28;20032;-86
2022/12/03 02:09:58;;;;;;;83.38;28.40;;;-0.10;99.90;;;;;;5072780;28;20052;-86
2022/12/03 02:12:31;;;;;;;82.57;27.77;;;-0.10;99.90;;;;;;5065461;28;20480;-85
2022/12/03 02:14:58;;;;;;;81.82;26.88;;;-0.10;99.90;;;;;;5071670;28;20426;-86
2022/12/03 02:17:24;;;;;;;77.00;27.48;;;-0.10;99.90;;;;;;5050604;28;20187;-85
2022/12/03 02:19:50;;;;;;;78.63;26.63;;;-0.10;99.90;;;;;;5063466;28;20048;-86
2022/12/03 02:22:36;;;;;;;82.53;28.20;;;-0.10;99.90;;;;;;5069960;28;20700;-86
2022/12/03 02:25:11;;;;;;;70.82;26.65;;;-0.20;99.90;;;;;;5058083;28;20430;-86
2022/12/03 02:27:37;;;;;;;78.35;27.60;;;-0.20;99.90;;;;;;5061643;28;20021;-85
2022/12/03 02:30:06;;;;;;;75.45;27.42;;;-0.20;99.90;;;;;;5074210;28;20146;-85
2022/12/03 02:32:31;;;;;;;77.78;27.45;;;-0.20;99.90;;;;;;5065585;28;20086;-85
2022/12/03 02:34:57;;;;;;;72.53;26.52;;;-0.20;99.90;;;;;;5056655;28;20024;-85
2022/12/03 02:37:30;;;;;;;75.03;26.80;;;-0.20;99.90;;;;;;5073693;28;20029;-86
2022/12/03 02:40:00;;;;;;;69.93;25.90;;;-0.20;99.90;;;;;;5067591;28;20023;-85
2022/12/03 02:42:36;;;;;;;65.43;25.33;;;-0.20;99.90;;;;;;5069125;28;20029;-86
2022/12/03 02:45:10;;;;;;;68.90;25.63;;;-0.20;99.90;;;;;;5056751;28;20028;-86
2022/12/03 02:48:05;;;;;;;67.72;25.60;;;-0.20;99.90;;;;;;5086003;28;20017;-86
2022/12/03 02:50:35;;;;;;;71.57;25.50;;;-0.20;99.90;;;;;;5061828;28;20124;-85
2022/12/03 02:53:05;;;;;;;77.43;27.17;;;-0.30;99.90;;;;;;5063851;28;20039;-85
2022/12/03 02:55:33;;;;;;;72.68;26.92;;;-0.20;99.90;;;;;;5066421;28;20037;-86
2022/12/03 02:58:00;;;;;;;72.60;26.27;;;-0.20;99.90;;;;;;5072896;28;20399;-85
2022/12/03 03:00:26;;;;;;;67.78;26.55;;;-0.20;99.90;;;;;;5081335;28;20064;-86
2022/12/03 03:02:52;;;;;;;72.88;27.90;;;-0.20;99.90;;;;;;5072518;28;20049;-85
2022/12/03 03:05:20;;;;;;;78.32;28.05;;;-0.20;99.90;;;;;;5071461;28;20028;-85
2022/12/03 03:07:47;;;;;;;72.57;26.90;;;-0.20;99.90;;;;;;5073095;28;20028;-85
2022/12/03 03:10:15;;;;;;;73.32;28.95;;;-0.30;99.90;;;;;;5073036;28;20494;-85
2022/12/03 03:12:42;;;;;;;82.97;29.33;;;-0.30;99.90;;;;;;5059146;28;20032;-85
2022/12/03 03:15:10;;;;;;;77.28;26.80;;;-0.30;99.90;;;;;;5070396;28;20052;-85
2022/12/03 03:17:36;;;;;;;81.57;27.35;;;-0.40;99.90;;;;;;5069275;28;20103;-86
2022/12/03 03:20:05;;;;;;;82.85;28.73;;;-0.30;99.90;;;;;;5071736;28;20090;-85
2022/12/03 03:22:36;;;;;;;81.38;26.92;;;-0.40;99.90;;;;;;5059289;28;20028;-86
2022/12/03 03:25:02;;;;;;;83.43;28.45;;;-0.40;99.90;;;;;;5077078;28;20107;-85
2022/12/03 03:27:29;;;;;;;94.50;30.70;;;-0.40;99.90;;;;;;5075627;28;20032;-85
2022/12/03 03:29:56;;;;;;;89.68;30.30;;;-0.40;99.90;;;;;;5072431;28;20396;-85
2022/12/03 03:32:23;;;;;;;88.65;29.55;;;-0.40;99.90;;;;;;5073190;28;20652;-86
2022/12/03 03:34:49;;;;;;;94.55;30.42;;;-0.40;99.90;;;;;;5072339;28;20037;-85
2022/12/03 03:37:14;;;;;;;97.93;29.80;;;-0.40;99.90;;;;;;5071743;28;20547;-85
2022/12/03 03:39:40;;;;;;;92.45;29.75;;;-0.40;99.90;;;;;;5061585;28;20055;-85
2022/12/03 03:42:06;;;;;;;88.05;28.65;;;-0.50;99.90;;;;;;5071989;28;20078;-85
2022/12/03 03:44:32;;;;;;;87.32;28.55;;;-0.40;99.90;;;;;;5068167;28;20020;-85
2022/12/03 03:46:58;;;;;;;96.78;32.83;;;-0.40;99.90;;;;;;5071225;28;20036;-86
2022/12/03 03:49:24;;;;;;;76.82;26.92;;;-0.40;99.90;;;;;;5072970;28;20369;-85
2022/12/03 03:51:50;;;;;;;80.22;28.02;;;-0.40;99.90;;;;;;5071428;28;20489;-85
2022/12/03 03:54:16;;;;;;;81.70;29.13;;;-0.50;99.90;;;;;;5049972;28;20170;-85
2022/12/03 03:56:42;;;;;;;84.20;28.13;;;-0.40;99.90;;;;;;5050119;28;20507;-86
2022/12/03 03:59:08;;;;;;;78.07;27.92;;;-0.40;99.90;;;;;;5072192;28;20024;-85
2022/12/03 04:01:34;;;;;;;86.53;29.95;;;-0.50;99.90;;;;;;5065061;28;20036;-85
2022/12/03 04:04:00;;;;;;;84.82;29.45;;;-0.50;99.90;;;;;;5087022;28;20713;-86
2022/12/03 04:06:27;;;;;;;99.10;29.83;;;-0.40;99.90;;;;;;5084536;28;20677;-86
2022/12/03 04:08:53;;;;;;;83.22;27.35;;;-0.50;99.90;;;;;;5058330;28;20032;-86
2022/12/03 04:14:03;;;;;;;85.80;27.60;;;-0.50;99.90;;;;;;5060315;28;20531;-85
2022/12/03 04:16:28;;;;;;;85.75;29.48;;;-0.60;99.90;;;;;;5065451;28;20107;-85
2022/12/03 04:18:54;;;;;;;101.28;32.42;;;-0.50;99.90;;;;;;5068510;28;20067;-85
2022/12/03 04:24:08;;;;;;;100.38;33.20;;;-0.60;99.90;;;;;;5062152;28;20093;-86
2022/12/03 04:29:19;;;;;;;102.93;30.88;;;-0.60;99.90;;;;;;5066192;28;20039;-86
2022/12/03 04:37:14;;;;;;;113.72;34.65;;;-0.60;99.90;;;;;;5083562;28;20633;-85
2022/12/03 04:39:40;;;;;;;112.22;35.90;;;-0.60;99.90;;;;;;5059565;28;20375;-86
2022/12/03 04:42:06;;;;;;;111.55;38.00;;;-0.70;99.90;;;;;;5071527;28;20024;-85
2022/12/03 04:44:34;;;;;;;117.95;39.72;;;-0.70;99.90;;;;;;5057568;28;20040;-86
2022/12/03 04:47:14;;;;;;;105.53;33.88;;;-0.70;99.90;;;;;;5071457;28;20036;-86
2022/12/03 04:49:47;;;;;;;103.03;34.28;;;-0.80;99.90;;;;;;5071494;28;20036;-85
2022/12/03 04:52:16;;;;;;;103.88;34.40;;;-0.80;99.90;;;;;;5070652;28;20032;-86
2022/12/03 04:54:41;;;;;;;130.05;37.00;;;-0.80;99.90;;;;;;5046770;28;20033;-86
2022/12/03 04:57:08;;;;;;;115.38;34.97;;;-0.70;99.90;;;;;;5063312;28;20078;-85
2022/12/03 04:59:35;;;;;;;126.55;36.10;;;-0.70;99.90;;;;;;5070941;28;20047;-85
2022/12/03 05:02:01;;;;;;;117.72;35.13;;;-0.70;99.90;;;;;;5077560;28;20024;-85
2022/12/03 05:04:27;;;;;;;127.13;38.97;;;-0.70;99.90;;;;;;5071378;28;20039;-86
2022/12/03 05:06:53;;;;;;;131.15;37.92;;;-0.70;99.90;;;;;;5051773;28;20025;-86
2022/12/03 05:09:19;;;;;;;137.75;36.78;;;-0.80;99.90;;;;;;5070830;28;20149;-86
2022/12/03 05:11:44;;;;;;;129.88;35.08;;;-0.80;99.90;;;;;;5049644;28;20021;-86
2022/12/03 05:14:10;;;;;;;134.63;37.08;;;-0.80;99.90;;;;;;5071022;28;20021;-86
2022/12/03 05:16:37;;;;;;;134.25;36.53;;;-0.90;99.90;;;;;;5070076;28;20035;-85
2022/12/03 05:19:04;;;;;;;127.85;35.70;;;-0.90;99.90;;;;;;5068294;28;20047;-85
2022/12/03 05:21:30;;;;;;;133.73;38.65;;;-1.00;99.90;;;;;;5072574;28;20083;-85
2022/12/03 05:23:56;;;;;;;124.40;37.45;;;-1.00;99.90;;;;;;5077320;28;20036;-86
2022/12/03 05:26:21;;;;;;;118.07;36.08;;;-1.10;99.90;;;;;;5070626;28;20036;-86
2022/12/03 05:28:47;;;;;;;120.03;36.25;;;-1.10;99.90;;;;;;5066123;28;20031;-86
2022/12/03 05:31:13;;;;;;;128.80;36.13;;;-1.20;99.90;;;;;;5070281;28;20021;-86
2022/12/03 05:33:39;;;;;;;127.20;37.85;;;-1.20;99.90;;;;;;5052628;28;20040;-86
2022/12/03 05:36:04;;;;;;;123.95;36.10;;;-1.20;99.90;;;;;;5049975;28;20060;-85
2022/12/03 05:38:30;;;;;;;134.15;36.47;;;-1.30;99.90;;;;;;5077517;28;20045;-86
2022/12/03 05:40:56;;;;;;;131.40;35.85;;;-1.30;99.90;;;;;;5069686;28;20386;-85
2022/12/03 05:43:27;;;;;;;130.88;36.40;;;-1.30;99.90;;;;;;5070397;28;20123;-86
2022/12/03 05:45:53;;;;;;;126.50;38.30;;;-1.20;99.90;;;;;;5069920;28;20476;-86
2022/12/03 05:48:19;;;;;;;134.00;35.42;;;-1.20;99.90;;;;;;5070797;28;20027;-86
2022/12/03 05:50:45;;;;;;;130.30;36.85;;;-1.10;99.90;;;;;;5051965;28;20036;-86
2022/12/03 05:53:14;;;;;;;134.40;38.88;;;-1.00;99.90;;;;;;5070423;28;20035;-85
2022/12/03 05:55:41;;;;;;;134.00;37.55;;;-1.00;99.90;;;;;;5070950;28;20067;-85
2022/12/03 05:58:07;;;;;;;133.38;39.00;;;-0.90;99.90;;;;;;5078027;28;20463;-86
2022/12/03 06:00:38;;;;;;;144.82;36.90;;;-0.90;99.90;;;;;;5068623;28;20067;-85
2022/12/03 06:03:05;;;;;;;132.15;37.35;;;-1.00;99.90;;;;;;5048628;28;20036;-85
2022/12/03 06:05:32;;;;;;;142.10;37.78;;;-1.00;99.90;;;;;;5081042;28;20021;-85
2022/12/03 06:07:58;;;;;;;116.88;35.20;;;-1.00;99.90;;;;;;5057161;28;20043;-86
2022/12/03 06:10:24;;;;;;;144.20;38.38;;;-1.00;99.90;;;;;;5081116;28;20841;-85
2022/12/03 06:12:51;;;;;;;150.10;40.25;;;-1.00;99.90;;;;;;5056996;28;20037;-86
2022/12/03 06:15:17;;;;;;;137.13;37.20;;;-1.00;99.90;;;;;;5073726;28;20028;-86
2022/12/03 06:17:43;;;;;;;133.18;36.38;;;-1.00;99.90;;;;;;5076606;28;20059;-85
2022/12/03 06:20:13;;;;;;;134.77;38.33;;;-1.10;99.90;;;;;;5072090;28;20508;-85
2022/12/03 06:22:39;;;;;;;163.70;41.47;;;-1.10;99.90;;;;;;5061504;28;20040;-85
2022/12/03 06:25:05;;;;;;;164.25;40.38;;;-1.10;99.90;;;;;;5072115;28;20051;-85
2022/12/03 06:27:31;;;;;;;152.77;40.80;;;-1.00;99.90;;;;;;5048612;28;20037;-86
2022/12/03 06:29:56;;;;;;;165.23;42.58;;;-1.00;99.90;;;;;;5072547;28;20036;-86
2022/12/03 06:32:22;;;;;;;175.80;44.35;;;-1.00;99.90;;;;;;5048196;28;20112;-85
2022/12/03 06:34:48;;;;;;;174.23;45.13;;;-1.00;99.90;;;;;;5070800;28;20082;-85
2022/12/03 06:37:13;;;;;;;174.45;42.20;;;-0.90;99.90;;;;;;5071066;28;20078;-86
2022/12/03 06:39:39;;;;;;;182.43;44.97;;;-0.90;99.90;;;;;;5058087;28;20032;-85
2022/12/03 06:42:05;;;;;;;178.52;45.03;;;-0.90;99.90;;;;;;5073203;28;20111;-86
2022/12/03 06:44:30;;;;;;;152.60;41.22;;;-0.80;99.90;;;;;;5062747;28;20037;-86
2022/12/03 06:46:56;;;;;;;188.02;43.08;;;-0.80;99.90;;;;;;5072143;28;20021;-85
2022/12/03 06:49:22;;;;;;;185.23;45.22;;;-0.70;99.90;;;;;;5081692;28;20104;-86
2022/12/03 06:51:47;;;;;;;175.13;43.70;;;-0.60;99.90;;;;;;5070751;28;20055;-86
2022/12/03 06:54:13;;;;;;;174.05;42.67;;;-0.60;99.90;;;;;;5067933;28;20082;-85
2022/12/03 06:56:39;;;;;;;189.45;45.85;;;-0.50;99.90;;;;;;5057180;28;20055;-86
2022/12/03 06:59:05;;;;;;;178.15;44.58;;;-0.50;99.90;;;;;;5055328;28;20028;-85
2022/12/03 07:01:30;;;;;;;178.65;46.90;;;-0.50;99.90;;;;;;5064390;28;20029;-85
2022/12/03 07:03:56;;;;;;;181.88;44.05;;;-0.40;99.90;;;;;;5061063;28;20041;-87
2022/12/03 07:06:24;;;;;;;181.23;44.97;;;-0.40;99.90;;;;;;5069177;28;20024;-87
2022/12/03 07:08:50;;;;;;;192.02;46.28;;;-0.40;99.90;;;;;;5060401;28;20044;-87
2022/12/03 07:11:30;;;;;;;189.98;47.38;;;-0.30;99.90;;;;;;5073919;28;20029;-88
2022/12/03 07:13:58;;;;;;;170.20;46.03;;;-0.20;99.90;;;;;;5059382;28;20496;-87
2022/12/03 07:16:23;;;;;;;181.73;44.15;;;-0.20;99.90;;;;;;5064300;28;20396;-87
2022/12/03 07:18:49;;;;;;;192.20;49.33;;;-0.20;99.90;;;;;;5072695;28;20029;-87
2022/12/03 07:21:15;;;;;;;181.02;45.30;;;-0.20;99.90;;;;;;5056054;28;20111;-86
2022/12/03 07:23:41;;;;;;;166.60;42.10;;;-0.10;99.90;;;;;;5075840;28;20112;-86
2022/12/03 07:26:07;;;;;;;171.50;41.95;;;-0.10;99.90;;;;;;5055533;28;20024;-87
2022/12/03 07:28:33;;;;;;;164.93;44.35;;;-0.10;99.90;;;;;;5072815;28;20036;-86
2022/12/03 07:30:59;;;;;;;171.75;43.47;;;-0.10;99.90;;;;;;5083201;28;20107;-86
2022/12/03 07:33:25;;;;;;;177.23;44.58;;;-0.10;99.90;;;;;;5069538;28;20029;-86
2022/12/03 07:35:51;;;;;;;168.45;44.20;;;-0.10;99.90;;;;;;5077266;28;20115;-87
2022/12/03 07:38:16;;;;;;;179.07;44.30;;;0.00;99.90;;;;;;5054709;28;20064;-87
2022/12/03 07:40:44;;;;;;;163.10;42.35;;;0.00;99.90;;;;;;5061310;28;20037;-87
2022/12/03 07:43:10;;;;;;;163.20;42.80;;;0.00;99.90;;;;;;5052852;28;20067;-87
2022/12/03 07:45:36;;;;;;;163.60;40.85;;;0.00;99.90;;;;;;5055655;28;20464;-87
2022/12/03 07:48:02;;;;;;;179.60;43.10;;;0.00;99.90;;;;;;5053473;28;20075;-87
2022/12/03 07:50:28;;;;;;;168.52;40.67;;;0.00;99.90;;;;;;5039316;28;20025;-88
2022/12/03 07:52:54;;;;;;;167.30;42.88;;;0.00;99.90;;;;;;5053898;28;20457;-88
2022/12/03 07:55:20;;;;;;;178.43;45.17;;;0.00;99.90;;;;;;5073128;28;20495;-87
2022/12/03 07:57:47;;;;;;;191.27;43.00;;;0.00;99.90;;;;;;5060326;28;20111;-88
2022/12/03 08:00:14;;;;;;;179.00;44.83;;;0.10;99.90;;;;;;5064430;28;20032;-88
2022/12/03 08:02:40;;;;;;;165.38;43.85;;;0.10;99.90;;;;;;5055263;28;20032;-88
2022/12/03 08:05:06;;;;;;;180.55;45.08;;;0.10;99.90;;;;;;5063677;28;20024;-87
2022/12/03 08:07:32;;;;;;;168.70;44.45;;;0.10;99.90;;;;;;5072281;28;20107;-87
2022/12/03 08:09:58;;;;;;;191.73;46.45;;;0.10;99.90;;;;;;5052759;28;20021;-86
2022/12/03 08:12:38;;;;;;;175.10;43.22;;;0.10;99.90;;;;;;5074747;28;20084;-87
2022/12/03 08:15:12;;;;;;;172.55;44.78;;;0.20;99.90;;;;;;5054457;28;20036;-86
2022/12/03 08:17:39;;;;;;;174.90;47.25;;;0.20;99.90;;;;;;5068857;28;20119;-87
2022/12/03 08:20:17;;;;;;;194.57;46.53;;;0.20;99.90;;;;;;5063184;28;20039;-87
2022/12/03 08:22:46;;;;;;;187.40;49.70;;;0.30;99.90;;;;;;5072063;28;20062;-86
2022/12/03 08:25:22;;;;;;;186.75;46.35;;;0.30;99.90;;;;;;5074174;28;20029;-87
2022/12/03 08:27:54;;;;;;;181.85;44.40;;;0.30;99.90;;;;;;5061716;28;20021;-87
2022/12/03 08:30:20;;;;;;;165.63;44.05;;;0.30;99.90;;;;;;5051298;28;20039;-87
2022/12/03 08:32:46;;;;;;;168.60;45.55;;;0.30;99.90;;;;;;5062572;28;20033;-87
2022/12/03 08:35:19;;;;;;;168.80;42.75;;;0.30;99.90;;;;;;5062791;28;20040;-87
2022/12/03 08:37:45;;;;;;;161.02;43.47;;;0.40;99.90;;;;;;5074655;28;20036;-87
2022/12/03 08:40:22;;;;;;;160.57;44.67;;;0.40;99.90;;;;;;5071019;28;20483;-88
2022/12/03 08:42:48;;;;;;;163.32;44.10;;;0.30;99.90;;;;;;5071390;28;20035;-87
2022/12/03 08:45:20;;;;;;;154.68;41.85;;;0.30;99.90;;;;;;5071559;28;20476;-87
2022/12/03 08:47:46;;;;;;;165.20;43.35;;;0.40;99.90;;;;;;5071378;28;20395;-87
2022/12/03 08:50:30;;;;;;;162.80;42.30;;;0.40;99.90;;;;;;5051911;28;20020;-87
2022/12/03 08:53:13;;;;;;;157.80;42.72;;;0.40;99.90;;;;;;5056757;28;20028;-87
2022/12/03 08:55:46;;;;;;;161.10;45.60;;;0.40;99.90;;;;;;5065091;28;20029;-86
2022/12/03 08:58:42;;;;;;;155.55;47.08;;;0.40;99.90;;;;;;5052683;28;20032;-86
2022/12/03 09:01:11;;;;;;;158.70;44.30;;;0.40;99.90;;;;;;5063573;28;20029;-86
2022/12/03 09:03:48;;;;;;;155.65;41.92;;;0.40;99.90;;;;;;5047043;28;20144;-86
2022/12/03 09:06:14;;;;;;;160.40;45.72;;;0.40;99.90;;;;;;5058773;28;20105;-87
2022/12/03 09:08:40;;;;;;;160.05;43.58;;;0.40;99.90;;;;;;5043608;28;20112;-86
2022/12/03 09:11:05;;;;;;;156.73;45.38;;;0.40;99.90;;;;;;5070288;28;20093;-86
2022/12/03 09:13:31;;;;;;;170.73;49.50;;;0.40;99.90;;;;;;5071275;28;20734;-86
2022/12/03 09:15:57;;;;;;;152.38;45.42;;;0.50;99.90;;;;;;5052824;28;20041;-87
2022/12/03 09:18:22;;;;;;;156.57;45.05;;;0.40;99.90;;;;;;5047235;28;20020;-86
2022/12/03 09:20:48;;;;;;;151.43;42.00;;;0.50;99.90;;;;;;5070666;28;20051;-86
2022/12/03 09:23:14;;;;;;;168.30;43.28;;;0.50;99.90;;;;;;5054310;28;20028;-86
2022/12/03 09:25:39;;;;;;;160.25;45.08;;;0.60;99.90;;;;;;5048104;28;20021;-87
2022/12/03 09:28:05;;;;;;;160.82;46.55;;;0.60;99.90;;;;;;5053512;28;20035;-88
2022/12/03 09:30:31;;;;;;;157.63;43.97;;;0.60;99.90;;;;;;5069267;28;20452;-86
2022/12/03 09:32:58;;;;;;;144.45;43.22;;;0.70;99.90;;;;;;5056876;28;20066;-86
2022/12/03 09:35:24;;;;;;;157.27;44.85;;;0.60;99.90;;;;;;5070432;28;20032;-86
2022/12/03 09:37:50;;;;;;;151.63;43.67;;;0.70;99.90;;;;;;5050810;28;20087;-86
2022/12/03 09:40:16;;;;;;;150.02;44.08;;;0.70;99.90;;;;;;5083698;28;20028;-86
2022/12/03 09:42:42;;;;;;;160.40;45.55;;;0.70;99.90;;;;;;5067140;28;20373;-86
2022/12/03 09:45:11;;;;;;;150.05;43.75;;;0.70;99.90;;;;;;5074120;28;20103;-86
2022/12/03 09:47:43;;;;;;;150.13;42.35;;;0.70;99.90;;;;;;5072024;28;20025;-86
2022/12/03 09:50:15;;;;;;;162.80;45.28;;;0.80;99.90;;;;;;5064840;28;20391;-85
2022/12/03 09:52:41;;;;;;;161.35;45.47;;;0.70;99.90;;;;;;5054422;28;20380;-86
2022/12/03 09:55:14;;;;;;;144.43;43.40;;;0.70;99.90;;;;;;5061814;28;20028;-87
2022/12/03 09:57:40;;;;;;;142.25;40.92;;;0.80;99.90;;;;;;5072820;28;20127;-87
2022/12/03 10:00:17;;;;;;;165.75;45.33;;;0.80;99.90;;;;;;5066717;28;20163;-87
2022/12/03 10:02:45;;;;;;;141.90;41.58;;;0.80;99.90;;;;;;5072391;28;20028;-87
2022/12/03 10:05:11;;;;;;;151.30;42.00;;;0.90;99.90;;;;;;5069073;28;20190;-87
2022/12/03 10:07:37;;;;;;;139.55;38.40;;;0.90;99.90;;;;;;5070577;28;20379;-86
2022/12/03 10:10:05;;;;;;;138.38;41.10;;;0.90;99.90;;;;;;5073555;28;20020;-87
2022/12/03 10:12:31;;;;;;;124.93;41.40;;;0.90;99.90;;;;;;5054301;28;20068;-87
2022/12/03 10:14:57;;;;;;;148.35;41.67;;;0.90;99.90;;;;;;5066693;28;20059;-87
2022/12/03 10:17:22;;;;;;;133.82;39.80;;;1.00;99.90;;;;;;5074465;28;20118;-86
2022/12/03 10:19:48;;;;;;;130.27;40.40;;;1.00;99.90;;;;;;5059920;28;20471;-86
2022/12/03 10:22:14;;;;;;;135.52;43.28;;;1.00;99.90;;;;;;5065075;28;20399;-85
2022/12/03 10:24:40;;;;;;;138.27;43.72;;;1.00;99.90;;;;;;5074631;28;20074;-87
2022/12/03 10:27:23;;;;;;;123.63;38.67;;;1.10;99.90;;;;;;5052972;28;20426;-87
2022/12/03 10:29:55;;;;;;;122.55;40.00;;;1.20;99.90;;;;;;5087501;28;20048;-86
2022/12/03 10:32:41;;;;;;;126.70;40.15;;;1.20;99.90;;;;;;5074131;28;20068;-85
2022/12/03 10:35:16;;;;;;;111.70;38.65;;;1.10;99.90;;;;;;5062154;28;20028;-86
2022/12/03 10:37:59;;;;;;;110.13;37.08;;;1.10;99.90;;;;;;5082490;28;20032;-86
2022/12/03 10:40:36;;;;;;;119.68;37.83;;;1.10;99.90;;;;;;5092441;28;20043;-86
2022/12/03 10:43:14;;;;;;;117.30;38.45;;;1.10;99.90;;;;;;5083798;28;20025;-86
2022/12/03 10:45:41;;;;;;;120.95;42.38;;;1.00;99.90;;;;;;5086489;28;20120;-86
2022/12/03 10:48:15;;;;;;;170.60;54.00;;;1.10;99.90;;;;;;5069105;28;20169;-86
2022/12/03 10:50:58;;;;;;;129.18;44.63;;;1.20;99.90;;;;;;5079445;28;20057;-86
2022/12/03 10:53:29;;;;;;;109.25;40.42;;;1.20;99.90;;;;;;5069681;28;20084;-86
2022/12/03 10:56:00;;;;;;;110.43;38.92;;;1.20;99.90;;;;;;5059977;28;20118;-86
2022/12/03 10:58:34;;;;;;;107.35;38.40;;;1.20;99.90;;;;;;5079585;28;20490;-86
2022/12/03 11:01:04;;;;;;;109.03;37.78;;;1.30;99.90;;;;;;5098529;28;20032;-86
2022/12/03 11:03:34;;;;;;;111.97;38.00;;;1.40;99.90;;;;;;5076743;28;20043;-87
2022/12/03 11:06:01;;;;;;;112.30;39.63;;;1.40;99.90;;;;;;5064193;28;20024;-86
2022/12/03 11:08:30;;;;;;;112.20;38.60;;;1.40;99.90;;;;;;5086688;28;20070;-86
2022/12/03 11:10:59;;;;;;;109.22;36.58;;;1.40;99.90;;;;;;5060259;28;20024;-86
2022/12/03 11:13:31;;;;;;;101.35;37.80;;;1.50;99.90;;;;;;5086980;28;20131;-86
2022/12/03 11:15:57;;;;;;;114.90;38.45;;;1.50;99.90;;;;;;5085643;28;20388;-87
2022/12/03 11:18:35;;;;;;;101.25;38.25;;;1.50;99.90;;;;;;5063953;28;20025;-86
2022/12/03 11:21:12;;;;;;;96.88;36.45;;;1.70;99.90;;;;;;5050881;28;20036;-86
2022/12/03 11:23:44;;;;;;;98.45;36.60;;;1.70;99.90;;;;;;5070914;28;20032;-86
2022/12/03 11:26:15;;;;;;;97.15;35.75;;;1.50;99.90;;;;;;5064369;28;20033;-86
2022/12/03 11:28:51;;;;;;;83.70;32.22;;;1.50;99.90;;;;;;5072050;28;20484;-86
2022/12/03 11:31:40;;;;;;;93.07;34.10;;;1.50;99.90;;;;;;5066170;28;20036;-86
2022/12/03 11:34:18;;;;;;;96.82;35.45;;;1.50;99.90;;;;;;5073333;28;20467;-86
2022/12/03 11:37:16;;;;;;;85.13;34.13;;;1.50;99.90;;;;;;5067559;28;20659;-86
2022/12/03 11:39:51;;;;;;;84.30;32.53;;;1.50;99.90;;;;;;5081624;28;20035;-86
2022/12/03 11:42:25;;;;;;;89.25;35.05;;;1.50;99.90;;;;;;5066376;28;20036;-86
2022/12/03 11:45:03;;;;;;;95.43;35.55;;;1.50;99.90;;;;;;5051777;28;20032;-86
2022/12/03 11:47:32;;;;;;;82.88;31.58;;;1.70;99.90;;;;;;5052942;28;20059;-87
2022/12/03 11:49:59;;;;;;;88.15;33.88;;;1.60;99.90;;;;;;5052650;28;20039;-86
2022/12/03 11:52:41;;;;;;;90.15;33.17;;;1.70;99.90;;;;;;5056469;28;20535;-86
2022/12/03 11:55:29;;;;;;;91.70;31.25;;;1.70;99.90;;;;;;5053585;28;20547;-86
2022/12/03 11:58:04;;;;;;;90.22;33.13;;;1.80;99.90;;;;;;5073314;28;20025;-86
2022/12/03 12:00:30;;;;;;;86.43;31.42;;;1.80;99.90;;;;;;5065305;28;20043;-86
2022/12/03 12:02:57;;;;;;;79.70;29.77;;;1.80;99.90;;;;;;5069331;28;20086;-86
2022/12/03 12:05:38;;;;;;;76.07;31.48;;;1.70;99.90;;;;;;5033551;28;20048;-86
2022/12/03 12:08:29;;;;;;;85.10;31.95;;;1.90;99.90;;;;;;5072813;28;20093;-85
2022/12/03 12:10:54;;;;;;;84.00;32.35;;;1.90;99.90;;;;;;5064359;28;20068;-86
2022/12/03 12:13:29;;;;;;;81.60;30.90;;;1.90;99.90;;;;;;5081874;28;20480;-86
2022/12/03 12:15:57;;;;;;;82.60;32.08;;;2.00;99.90;;;;;;5063238;28;20056;-87
2022/12/03 12:18:38;;;;;;;76.47;31.30;;;1.90;99.90;;;;;;5070268;28;20526;-86
2022/12/03 12:21:42;;;;;;;82.18;30.73;;;2.00;99.90;;;;;;5065442;28;20055;-85
2022/12/03 12:24:35;;;;;;;72.95;28.80;;;2.00;99.90;;;;;;5064401;28;20081;-86
2022/12/03 12:27:06;;;;;;;74.55;28.90;;;1.90;99.90;;;;;;5062260;28;20037;-86
2022/12/03 12:29:33;;;;;;;74.63;28.70;;;2.00;99.90;;;;;;5068789;28;20029;-86
2022/12/03 12:32:06;;;;;;;71.35;29.48;;;1.90;99.90;;;;;;5067169;28;20127;-87
2022/12/03 12:34:32;;;;;;;77.95;32.08;;;2.00;99.90;;;;;;5071892;28;20024;-86
2022/12/03 12:36:59;;;;;;;75.55;31.35;;;2.10;99.90;;;;;;5067594;28;20071;-86
2022/12/03 12:39:25;;;;;;;82.90;31.30;;;2.10;99.90;;;;;;5054604;28;20021;-86
2022/12/03 12:41:51;;;;;;;95.82;34.90;;;1.90;99.90;;;;;;5071766;28;20031;-85
2022/12/03 12:44:22;;;;;;;97.82;35.75;;;1.80;99.90;;;;;;5072834;28;20024;-87
2022/12/03 12:46:50;;;;;;;84.90;35.03;;;1.70;99.90;;;;;;5052292;28;20028;-87
2022/12/03 12:49:20;;;;;;;74.32;30.35;;;1.70;99.90;;;;;;5069538;28;20476;-87